Twin Rocks, Pennsylvania
Current Conditions -  °F | °C
As of 11:54 PM on Friday 31 Oct 2014 (Local Time) from KJST Reporting Station
Light Rain Light Rain  
Wind Chill: 33°   Ceiling: 200
Heat Index: 38°   Visibility: 2.5mi
Dew Point: 36°   Wind: 6mph
Humidity: 93%   Direction: 70°ENE
Pressure: 29.84"   Gusts: NA
Location:  40.5°N, 78.87°W
Report Text: KJST 010354Z AUTO 07005KT 2 1/2SM -RA BR BKN002 BKN012 OVC050 03/02 A2984 RMK AO2 SLP118 P0001 T00330022
Loading
Personal Weather Stations






























Interactive Weather Map
Tropical Storm Tracking
New forecast layout! Learn more

10-Day Weather Forecast

Advertisements
Track Severe Weather on mobile